Terminal Aerodrome Forecast
Issued by NWS Grand Forks, ND

Home | Current Version | Previous Version | Text Only | Print | Product List | Glossary Off
Versions: 1 2 3 4 5 6 7 8 9 10 11 12 13 14 15 16 17 18 19 20 21 22

550
FTUS43 KFGF 201504 AAE
TAFGFK
TAF AMD
KGFK 201504Z 2015/2112 19013KT P6SM BKN150
     FM201700 22011KT P6SM BKN150
     FM202100 25013KT P6SM BKN150
     FM202300 28017KT P6SM SCT150
     FM210200 30021G29KT P6SM BKN090
     FM210800 33023G32KT P6SM BKN030
     FM210900 33023G32KT P6SM BKN040=

USA.gov is the U.S. government's official web portal to all federal, state and local government web resources and services.